createdAt,value
2019-02-12T00:03:49.952Z,0.26
2019-02-12T00:07:55.302Z,0.28
2019-02-12T00:12:00.581Z,0.16
2019-02-12T00:16:05.959Z,0.16
2019-02-12T00:20:11.385Z,0.10
2019-02-12T00:24:16.718Z,0.10
2019-02-12T00:28:22.273Z,-0.20
2019-02-12T00:32:27.567Z,-0.24
2019-02-12T00:36:33.065Z,-0.30
2019-02-12T00:40:38.501Z,-0.41
2019-02-12T00:44:44.011Z,-0.46
2019-02-12T00:48:49.276Z,-0.29
2019-02-12T00:52:54.991Z,-0.20
2019-02-12T00:57:00.710Z,-0.22
2019-02-12T01:01:06.164Z,-0.11
2019-02-12T01:05:11.591Z,-0.08
2019-02-12T01:09:17.234Z,-0.21
2019-02-12T01:13:22.593Z,-0.17
2019-02-12T01:17:27.979Z,0.06
2019-02-12T01:21:33.398Z,-0.17
2019-02-12T01:25:38.676Z,0.05
2019-02-12T01:29:44.102Z,0.05
2019-02-12T01:33:49.609Z,0.02
2019-02-12T01:37:55.049Z,0.08
2019-02-12T01:42:00.764Z,0.02
2019-02-12T01:46:06.188Z,0.11
2019-02-12T01:50:14.113Z,0.15
2019-02-12T01:54:19.568Z,0.21
2019-02-12T01:58:24.859Z,0.20
2019-02-12T02:02:30.335Z,0.20
2019-02-12T02:06:35.756Z,0.19
2019-02-12T02:10:41.204Z,0.22
2019-02-12T02:14:46.607Z,0.28
2019-02-12T02:18:52.046Z,0.20
2019-02-12T02:22:57.476Z,0.39
2019-02-12T02:27:02.917Z,0.43
2019-02-12T02:31:08.352Z,0.40
2019-02-12T02:35:13.835Z,0.51
2019-02-12T02:39:19.186Z,0.38
2019-02-12T02:43:24.707Z,0.30
2019-02-12T02:47:30.996Z,0.32
2019-02-12T02:51:36.472Z,0.24
2019-02-12T02:55:41.838Z,0.23
2019-02-12T02:59:47.085Z,0.23
2019-02-12T03:03:52.922Z,0.32
2019-02-12T03:07:58.375Z,0.33
2019-02-12T03:12:03.749Z,0.44
2019-02-12T03:16:09.177Z,0.52
2019-02-12T03:20:14.133Z,0.61
2019-02-12T03:24:19.487Z,0.57
2019-02-12T03:28:24.858Z,0.50
2019-02-12T03:32:30.163Z,0.49
2019-02-12T03:36:35.565Z,0.46
2019-02-12T03:40:41.285Z,0.43
2019-02-12T03:44:47.080Z,0.40
2019-02-12T03:48:52.514Z,0.33
2019-02-12T03:52:57.942Z,0.18
2019-02-12T03:57:03.368Z,0.22
2019-02-12T04:01:08.889Z,0.10
2019-02-12T04:05:14.331Z,-0.05
2019-02-12T04:09:20.051Z,0.02
2019-02-12T04:13:25.654Z,-0.01
2019-02-12T04:17:31.242Z,-0.17
2019-02-12T04:21:36.651Z,-0.30
2019-02-12T04:25:42.010Z,-0.23
2019-02-12T04:29:47.362Z,-0.34
2019-02-12T04:33:52.789Z,-0.27
2019-02-12T04:37:58.237Z,-0.27
2019-02-12T04:42:04.295Z,-0.31
2019-02-12T04:46:09.968Z,-0.32
2019-02-12T04:50:15.465Z,-0.33
2019-02-12T04:54:20.867Z,-0.28
2019-02-12T04:58:26.318Z,-0.47
2019-02-12T05:02:31.836Z,-0.26
2019-02-12T05:06:37.653Z,-0.25
2019-02-12T05:10:54.096Z,-0.38
2019-02-12T05:14:59.523Z,-0.24
2019-02-12T05:19:05.036Z,-0.25
2019-02-12T05:23:10.514Z,-0.24
2019-02-12T05:27:15.837Z,-0.17
2019-02-12T05:31:21.199Z,-0.22
2019-02-12T05:35:26.597Z,-0.17
2019-02-12T05:39:32.413Z,-0.18
2019-02-12T05:43:37.980Z,-0.17
2019-02-12T05:47:43.417Z,-0.25
2019-02-12T05:51:48.931Z,-0.36
2019-02-12T05:55:54.410Z,-0.07
2019-02-12T05:59:59.795Z,-0.30
2019-02-12T06:04:05.502Z,-0.16
2019-02-12T06:08:10.932Z,-0.08
2019-02-12T06:12:17.073Z,-0.05
2019-02-12T06:16:22.816Z,-0.15
2019-02-12T06:20:28.343Z,-0.22
2019-02-12T06:24:34.027Z,-0.03
2019-02-12T06:28:39.801Z,-0.05
2019-02-12T06:32:45.606Z,0.05
2019-02-12T06:36:50.961Z,0.09
2019-02-12T06:40:56.717Z,0.04
2019-02-12T06:45:02.447Z,0.21
2019-02-12T06:49:07.890Z,0.12
2019-02-12T06:53:13.351Z,0.16
2019-02-12T06:57:18.647Z,0.15
2019-02-12T07:01:23.913Z,0.18
2019-02-12T07:05:29.105Z,0.31
2019-02-12T07:09:56.898Z,0.28
2019-02-12T07:14:31.646Z,0.24
2019-02-12T07:19:12.734Z,0.23
2019-02-12T07:24:30.673Z,0.29
2019-02-12T07:29:51.386Z,0.48
2019-02-12T07:34:36.175Z,0.45
2019-02-12T07:39:27.631Z,0.61
2019-02-12T07:44:16.322Z,0.58
2019-02-12T07:49:40.304Z,0.57
2019-02-12T07:54:20.009Z,0.61
2019-02-12T07:59:37.359Z,0.66
2019-02-12T08:04:51.697Z,0.74
2019-02-12T08:10:05.867Z,0.72
2019-02-12T08:14:37.282Z,0.85
2019-02-12T08:19:34.855Z,0.93
2019-02-12T08:24:29.428Z,0.96
2019-02-12T08:29:53.092Z,1.04
2019-02-12T08:34:50.723Z,1.09
2019-02-12T08:39:42.353Z,1.27
2019-02-12T08:44:22.083Z,1.40
2019-02-12T08:49:36.769Z,1.82
2019-02-12T08:54:36.289Z,1.96
2019-02-12T08:59:21.160Z,2.27
2019-02-12T09:04:23.548Z,2.24
2019-02-12T09:09:13.421Z,2.30
2019-02-12T09:14:05.024Z,2.33
2019-02-12T09:18:58.927Z,2.45
2019-02-12T09:24:00.015Z,2.29
2019-02-12T09:29:04.459Z,2.32
2019-02-12T09:34:17.153Z,2.32
2019-02-12T09:38:51.028Z,2.38
2019-02-12T09:43:54.895Z,2.44
2019-02-12T09:48:39.305Z,2.37
2019-02-12T09:53:43.319Z,2.42
2019-02-12T09:58:09.259Z,2.56
2019-02-12T10:03:10.379Z,2.58
2019-02-12T10:08:05.150Z,2.59
2019-02-12T10:13:03.133Z,2.69
2019-02-12T10:17:29.289Z,2.75
2019-02-12T10:22:33.007Z,3.02
2019-02-12T10:26:40.498Z,3.05
2019-02-12T10:31:13.271Z,2.96
2019-02-12T10:35:18.720Z,2.96
2019-02-12T10:39:24.342Z,3.29
2019-02-12T10:43:29.718Z,3.10
2019-02-12T10:47:35.063Z,3.29
2019-02-12T10:51:40.443Z,3.31
2019-02-12T10:55:45.883Z,3.39
2019-02-12T10:59:51.602Z,3.33
2019-02-12T11:03:56.981Z,3.46
2019-02-12T11:08:02.356Z,3.76
2019-02-12T11:12:07.789Z,3.85
2019-02-12T11:16:13.207Z,3.52
2019-02-12T11:20:18.767Z,3.51
2019-02-12T11:24:24.060Z,3.76
2019-02-12T11:28:29.489Z,3.94
2019-02-12T11:32:35.508Z,4.14
2019-02-12T11:36:40.947Z,4.11
2019-02-12T11:40:46.452Z,4.16
2019-02-12T11:44:52.484Z,4.17
2019-02-12T11:48:57.882Z,4.22
2019-02-12T11:53:03.419Z,4.49
2019-02-12T11:57:08.756Z,4.59
2019-02-12T12:01:21.227Z,4.27
2019-02-12T12:05:26.664Z,4.13
2019-02-12T12:09:32.029Z,4.62
2019-02-12T12:13:37.512Z,4.48
2019-02-12T12:17:43.128Z,4.52
2019-02-12T12:21:48.543Z,4.92
2019-02-12T12:25:53.950Z,5.03
2019-02-12T12:29:59.389Z,4.76
2019-02-12T12:34:04.812Z,5.20
2019-02-12T12:38:10.284Z,5.28
2019-02-12T12:42:15.951Z,5.38
2019-02-12T12:46:21.221Z,5.29
2019-02-12T12:50:26.720Z,5.34
2019-02-12T12:54:32.194Z,5.89
2019-02-12T12:58:37.701Z,5.71
2019-02-12T13:02:43.108Z,6.06
2019-02-12T13:06:48.713Z,5.78
2019-02-12T13:10:54.181Z,5.69
2019-02-12T13:14:59.645Z,6.21
2019-02-12T13:19:05.092Z,6.34
2019-02-12T13:23:10.512Z,5.90
2019-02-12T13:27:16.183Z,6.09
2019-02-12T13:31:21.507Z,6.15
2019-02-12T13:35:26.955Z,6.54
2019-02-12T13:39:32.307Z,6.29
2019-02-12T13:43:37.621Z,6.23
2019-02-12T13:47:43.013Z,6.02
2019-02-12T13:51:48.389Z,6.21
2019-02-12T13:55:53.807Z,5.94
2019-02-12T13:59:59.154Z,6.65
2019-02-12T14:04:04.544Z,6.28
2019-02-12T14:08:10.325Z,6.53
2019-02-12T14:12:15.908Z,6.56
2019-02-12T14:16:21.629Z,6.77
2019-02-12T14:20:27.077Z,6.82
2019-02-12T14:24:32.405Z,6.66
2019-02-12T14:28:37.769Z,6.95
2019-02-12T14:32:43.226Z,7.02
2019-02-12T14:36:48.621Z,6.59
2019-02-12T14:40:53.960Z,6.70
2019-02-12T14:44:59.466Z,6.73
2019-02-12T14:49:05.072Z,6.71
2019-02-12T14:53:10.597Z,6.64
2019-02-12T14:57:16.101Z,6.78
2019-02-12T15:01:21.522Z,7.05
2019-02-12T15:05:26.936Z,6.85
2019-02-12T15:09:32.395Z,7.68
2019-02-12T15:13:37.823Z,7.09
2019-02-12T15:17:43.554Z,7.06
2019-02-12T15:21:49.071Z,7.44
2019-02-12T15:25:54.478Z,6.85
2019-02-12T15:29:59.996Z,6.77
2019-02-12T15:34:05.528Z,6.70
2019-02-12T15:38:10.965Z,6.69
2019-02-12T15:42:16.723Z,6.76
2019-02-12T15:46:22.203Z,6.47
2019-02-12T15:50:27.456Z,6.58
2019-02-12T15:54:33.285Z,6.63
2019-02-12T15:58:38.707Z,6.49
2019-02-12T16:02:44.763Z,6.26
2019-02-12T16:06:50.097Z,5.99
2019-02-12T16:10:56.978Z,6.05
2019-02-12T16:15:02.814Z,5.86
2019-02-12T16:19:09.651Z,5.71
2019-02-12T16:23:15.522Z,5.63
2019-02-12T16:27:21.271Z,5.54
2019-02-12T16:31:26.744Z,5.49
2019-02-12T16:35:32.164Z,5.43
2019-02-12T16:39:38.034Z,5.21
2019-02-12T16:43:43.460Z,5.14
2019-02-12T16:47:48.917Z,5.02
2019-02-12T16:51:54.503Z,4.83
2019-02-12T16:56:07.901Z,4.90
2019-02-12T17:00:14.109Z,4.91
2019-02-12T17:04:19.533Z,4.84
2019-02-12T17:08:24.918Z,4.84
2019-02-12T17:12:30.433Z,4.75
2019-02-12T17:16:35.856Z,4.70
2019-02-12T17:20:41.432Z,4.53
2019-02-12T17:24:47.226Z,4.48
2019-02-12T17:28:52.581Z,4.36
2019-02-12T17:32:57.987Z,4.22
2019-02-12T17:37:03.765Z,4.09
2019-02-12T17:41:09.275Z,3.93
2019-02-12T17:45:15.191Z,3.92
2019-02-12T17:49:20.579Z,3.78
2019-02-12T17:53:26.018Z,3.69
2019-02-12T17:57:31.389Z,3.54
2019-02-12T18:01:36.766Z,3.47
2019-02-12T18:05:42.200Z,3.48
2019-02-12T18:09:47.484Z,3.42
2019-02-12T18:13:52.888Z,3.19
2019-02-12T18:17:58.353Z,3.00
2019-02-12T18:22:03.790Z,3.05
2019-02-12T18:26:09.807Z,2.97
2019-02-12T18:30:16.370Z,3.06
2019-02-12T18:34:21.895Z,2.86
2019-02-12T18:38:27.573Z,2.98
2019-02-12T18:42:33.030Z,2.69
2019-02-12T18:46:38.678Z,2.65
2019-02-12T18:50:44.091Z,2.59
2019-02-12T18:54:49.380Z,2.58
2019-02-12T18:58:55.059Z,2.53
2019-02-12T19:03:00.839Z,2.51
2019-02-12T19:07:06.663Z,2.49
2019-02-12T19:11:12.256Z,2.25
2019-02-12T19:15:17.891Z,2.31
2019-02-12T19:19:26.422Z,2.24
2019-02-12T19:23:31.913Z,2.16
2019-02-12T19:27:37.429Z,2.43
2019-02-12T19:31:42.827Z,2.15
2019-02-12T19:35:48.150Z,2.16
2019-02-12T19:39:53.811Z,2.14
2019-02-12T19:43:59.658Z,1.96
2019-02-12T19:48:05.727Z,1.95
2019-02-12T19:52:11.262Z,2.08
2019-02-12T19:56:16.834Z,2.09
2019-02-12T20:00:22.386Z,2.08
2019-02-12T20:04:28.145Z,2.05
2019-02-12T20:08:33.587Z,1.90
2019-02-12T20:12:39.018Z,2.42
2019-02-12T20:16:44.413Z,2.23
2019-02-12T20:20:49.997Z,2.20
2019-02-12T20:24:55.818Z,2.11
2019-02-12T20:29:01.316Z,1.99
2019-02-12T20:33:06.961Z,1.86
2019-02-12T20:37:12.471Z,1.96
2019-02-12T20:41:18.581Z,1.97
2019-02-12T20:45:24.213Z,2.03
2019-02-12T20:49:29.988Z,2.37
2019-02-12T20:53:35.536Z,2.55
2019-02-12T20:57:41.006Z,2.45
2019-02-12T21:01:46.417Z,2.80
2019-02-12T21:05:52.066Z,2.81
2019-02-12T21:09:57.438Z,2.99
2019-02-12T21:14:03.274Z,2.78
2019-02-12T21:18:08.802Z,3.02
2019-02-12T21:22:14.342Z,2.60
2019-02-12T21:26:20.071Z,3.20
2019-02-12T21:30:25.865Z,3.10
2019-02-12T21:34:31.460Z,2.67
2019-02-12T21:38:37.224Z,2.86
2019-02-12T21:42:42.722Z,2.77
2019-02-12T21:46:48.069Z,3.08
2019-02-12T21:50:53.424Z,3.04
2019-02-12T21:54:59.061Z,3.17
2019-02-12T21:59:04.493Z,2.99
2019-02-12T22:03:09.938Z,2.83
2019-02-12T22:07:15.320Z,3.03
2019-02-12T22:11:20.756Z,2.82
2019-02-12T22:15:26.176Z,2.78
2019-02-12T22:19:31.623Z,2.88
2019-02-12T22:23:37.041Z,2.86
2019-02-12T22:27:42.681Z,2.93
2019-02-12T22:31:48.318Z,2.75
2019-02-12T22:35:54.036Z,2.70
2019-02-12T22:39:59.472Z,2.67
2019-02-12T22:44:04.916Z,2.42
2019-02-12T22:48:10.289Z,2.37
2019-02-12T22:52:15.736Z,2.24
2019-02-12T22:56:21.161Z,2.11
2019-02-12T23:00:40.031Z,2.06
2019-02-12T23:04:45.417Z,1.94
2019-02-12T23:08:50.859Z,1.86
2019-02-12T23:12:56.310Z,1.97
2019-02-12T23:17:03.337Z,1.83
2019-02-12T23:21:08.876Z,1.89
2019-02-12T23:25:14.274Z,1.72
2019-02-12T23:29:19.750Z,1.81
2019-02-12T23:33:25.187Z,1.85
2019-02-12T23:37:30.555Z,1.76
2019-02-12T23:41:35.975Z,1.64
2019-02-12T23:45:41.419Z,1.58
2019-02-12T23:49:46.762Z,1.62
2019-02-12T23:53:52.149Z,1.54
2019-02-12T23:58:05.561Z,1.60
